Главная страница
METAR-TAF:

METAR-TAF

Аэропорты :

Såtenäs, Швеция

широта: 58-26N, долгота: 012-42E, высота над уровнем моря: 54 м

Текущие метеонаблюдения

Эта сводка был подготовлена 23 минут назад, в 22:20 UTC
Ветер 7 Узел от южный-юго-западный
Температура 2°C
Влажность 93%
Давление 1008 hPa
Видимость 10 км и более

METAR: ESIB 072220Z AUTO 20007KT 9999 NCD 02/01 Q1008

Время: 00:43 (22:43 UTC)

Прогноз

Эта сводка был подготовлена 11 часа и 18 минут назад, в 11:25 UTC
Прогноз действительный с 07-го 12 UTC до 07-го 15 UTC
Ветер 10 Узел от северо-западный
Видимость 10 км и более
Нет облачности ниже 1500 м, и нет кучево-дождевой облачности
временами
С 07-го 12 UTC до 07-го 15 UTC
Видимость: 5000 м
Рассеянная облачность на высоте 2500 фута, мощно-кучевые.
ливневые дожди

TAF: ESIB 071125Z 0712/0715 31010KT CAVOK TEMPO 0712/0715 5000 SHRA BKN025TCU RMK MIL

Метеонаблюдения и прогнозы для более 4000 аэропортов (сводки METAR и TAF).

Имеющиеся станции представлены на карте желтыми и красными точками.

Чтобы увидеть название станции, наведите на нее мышь.

Затем щелкните, чтобы увидеть метеонаблюдения и метеопрогнозы.

Управление картой: чтобы увеличить масштаб, щелкните зеленые кнопки с черным крестиком; чтобы уменьшить масштаб, щелкните зеленую кнопку с тире; для просмотра соседних карт щелкайте зеленые стрелки.


METAR-TAF: